sensor_id;sensor_type;location;lat;lon;timestamp;pressure;altitude;pressure_sealevel;temperature;humidity
58843;BME280;44614;54.356;10.100;2022-07-15T00:02:02;101534.00;;;12.02;76.63
58843;BME280;44614;54.356;10.100;2022-07-15T00:04:27;101533.59;;;11.99;77.14
58843;BME280;44614;54.356;10.100;2022-07-15T00:06:52;101532.09;;;11.96;76.91
58843;BME280;44614;54.356;10.100;2022-07-15T00:09:18;101532.75;;;11.98;76.73
58843;BME280;44614;54.356;10.100;2022-07-15T00:11:43;101526.19;;;11.92;77.73
58843;BME280;44614;54.356;10.100;2022-07-15T00:14:09;101538.91;;;11.87;77.71
58843;BME280;44614;54.356;10.100;2022-07-15T00:16:34;101529.78;;;11.86;77.50
58843;BME280;44614;54.356;10.100;2022-07-15T00:18:59;101528.09;;;11.85;77.44
58843;BME280;44614;54.356;10.100;2022-07-15T00:21:24;101528.72;;;11.81;77.68
58843;BME280;44614;54.356;10.100;2022-07-15T00:23:50;101538.50;;;11.83;77.33
58843;BME280;44614;54.356;10.100;2022-07-15T00:26:15;101531.91;;;11.84;77.03
58843;BME280;44614;54.356;10.100;2022-07-15T00:28:40;101528.09;;;11.85;76.77
58843;BME280;44614;54.356;10.100;2022-07-15T00:31:06;101525.72;;;11.82;77.36
58843;BME280;44614;54.356;10.100;2022-07-15T00:33:31;101516.66;;;11.75;77.24
58843;BME280;44614;54.356;10.100;2022-07-15T00:35:57;101508.00;;;11.65;77.78
58843;BME280;44614;54.356;10.100;2022-07-15T00:38:22;101522.38;;;11.74;77.73
58843;BME280;44614;54.356;10.100;2022-07-15T00:40:49;101524.50;;;11.71;78.18
58843;BME280;44614;54.356;10.100;2022-07-15T00:43:14;101525.13;;;11.67;81.11
58843;BME280;44614;54.356;10.100;2022-07-15T00:45:43;101523.44;;;11.66;79.04
58843;BME280;44614;54.356;10.100;2022-07-15T00:48:09;101515.84;;;11.61;78.42
58843;BME280;44614;54.356;10.100;2022-07-15T00:50:36;101524.94;;;11.68;78.88
58843;BME280;44614;54.356;10.100;2022-07-15T00:53:05;101518.56;;;11.75;78.13
58843;BME280;44614;54.356;10.100;2022-07-15T00:55:37;101512.84;;;11.69;78.34
58843;BME280;44614;54.356;10.100;2022-07-15T00:58:04;101527.03;;;11.80;78.16
58843;BME280;44614;54.356;10.100;2022-07-15T01:00:30;101520.47;;;11.81;78.67
58843;BME280;44614;54.356;10.100;2022-07-15T01:02:58;101519.38;;;11.82;78.66
58843;BME280;44614;54.356;10.100;2022-07-15T01:05:25;101481.75;;;11.62;79.56
58843;BME280;44614;54.356;10.100;2022-07-15T01:07:50;101517.47;;;11.82;78.94
58843;BME280;44614;54.356;10.100;2022-07-15T01:10:17;101522.59;;;11.85;78.54
58843;BME280;44614;54.356;10.100;2022-07-15T01:12:43;101511.38;;;11.87;78.96
58843;BME280;44614;54.356;10.100;2022-07-15T01:15:11;101513.91;;;11.88;79.04
58843;BME280;44614;54.356;10.100;2022-07-15T01:17:36;101512.66;;;11.91;78.94
58843;BME280;44614;54.356;10.100;2022-07-15T01:20:02;101520.69;;;11.92;79.23
58843;BME280;44614;54.356;10.100;2022-07-15T01:22:28;101525.75;;;11.95;78.63
58843;BME280;44614;54.356;10.100;2022-07-15T01:24:53;101520.25;;;11.95;78.75
58843;BME280;44614;54.356;10.100;2022-07-15T01:27:19;101521.09;;;11.96;78.37
58843;BME280;44614;54.356;10.100;2022-07-15T01:29:45;101523.84;;;12.03;78.48
58843;BME280;44614;54.356;10.100;2022-07-15T01:32:10;101530.19;;;12.03;78.17
58843;BME280;44614;54.356;10.100;2022-07-15T01:34:36;101527.00;;;12.06;77.77
58843;BME280;44614;54.356;10.100;2022-07-15T01:37:01;101524.66;;;12.10;77.87
58843;BME280;44614;54.356;10.100;2022-07-15T01:39:27;101520.84;;;12.11;77.57
58843;BME280;44614;54.356;10.100;2022-07-15T01:41:52;101523.16;;;12.14;77.49
58843;BME280;44614;54.356;10.100;2022-07-15T01:44:17;101489.31;;;11.93;77.92
58843;BME280;44614;54.356;10.100;2022-07-15T01:46:43;101524.84;;;12.15;78.55
58843;BME280;44614;54.356;10.100;2022-07-15T01:49:08;101526.97;;;12.13;78.22
58843;BME280;44614;54.356;10.100;2022-07-15T01:51:53;101531.63;;;12.12;78.29
58843;BME280;44614;54.356;10.100;2022-07-15T01:54:23;101530.34;;;12.15;77.77
58843;BME280;44614;54.356;10.100;2022-07-15T01:56:50;101532.88;;;12.16;78.03
58843;BME280;44614;54.356;10.100;2022-07-15T01:59:16;101531.59;;;12.19;78.23
58843;BME280;44614;54.356;10.100;2022-07-15T02:01:42;101529.28;;;12.16;78.99
58843;BME280;44614;54.356;10.100;2022-07-15T02:04:08;101535.88;;;12.15;79.05
58843;BME280;44614;54.356;10.100;2022-07-15T02:06:33;101536.09;;;12.13;79.11
58843;BME280;44614;54.356;10.100;2022-07-15T02:08:59;101532.06;;;12.09;79.32
58843;BME280;44614;54.356;10.100;2022-07-15T02:11:24;101535.88;;;12.15;78.74
58843;BME280;44614;54.356;10.100;2022-07-15T02:13:50;101534.78;;;12.16;78.69
58843;BME280;44614;54.356;10.100;2022-07-15T02:16:15;101532.69;;;12.18;78.41
58843;BME280;44614;54.356;10.100;2022-07-15T02:18:40;101535.00;;;12.21;78.04
58843;BME280;44614;54.356;10.100;2022-07-15T02:21:06;101540.06;;;12.24;78.18
58843;BME280;44614;54.356;10.100;2022-07-15T02:23:31;101532.25;;;12.21;78.98
58843;BME280;44614;54.356;10.100;2022-07-15T02:25:56;101532.69;;;12.18;78.91
58843;BME280;44614;54.356;10.100;2022-07-15T02:28:22;101538.78;;;12.20;78.65
58843;BME280;44614;54.356;10.100;2022-07-15T02:30:48;101539.22;;;12.24;78.36
58843;BME280;44614;54.356;10.100;2022-07-15T02:33:14;101541.13;;;12.23;78.78
58843;BME280;44614;54.356;10.100;2022-07-15T02:35:40;101541.78;;;12.25;78.40
58843;BME280;44614;54.356;10.100;2022-07-15T02:38:07;101551.72;;;12.26;78.51
58843;BME280;44614;54.356;10.100;2022-07-15T02:40:32;101525.47;;;12.17;78.88
58843;BME280;44614;54.356;10.100;2022-07-15T02:43:00;101544.72;;;12.24;78.99
58843;BME280;44614;54.356;10.100;2022-07-15T02:45:28;101530.13;;;12.16;78.50
58843;BME280;44614;54.356;10.100;2022-07-15T02:47:54;101543.44;;;12.26;78.30
58843;BME280;44614;54.356;10.100;2022-07-15T02:50:20;101541.31;;;12.28;78.85
58843;BME280;44614;54.356;10.100;2022-07-15T02:52:46;101526.94;;;12.19;78.73
58843;BME280;44614;54.356;10.100;2022-07-15T02:55:13;101556.78;;;12.29;78.93
58843;BME280;44614;54.356;10.100;2022-07-15T02:57:39;101561.22;;;12.30;78.76
58843;BME280;44614;54.356;10.100;2022-07-15T03:00:07;101553.41;;;12.27;78.97
58843;BME280;44614;54.356;10.100;2022-07-15T03:02:32;101551.47;;;12.28;78.77
58843;BME280;44614;54.356;10.100;2022-07-15T03:04:58;101553.81;;;12.24;79.31
58843;BME280;44614;54.356;10.100;2022-07-15T03:07:23;101518.53;;;12.01;79.38
58843;BME280;44614;54.356;10.100;2022-07-15T03:09:48;101558.06;;;12.20;79.47
58843;BME280;44614;54.356;10.100;2022-07-15T03:12:14;101551.97;;;12.18;79.66
58843;BME280;44614;54.356;10.100;2022-07-15T03:14:39;101559.38;;;12.17;79.89
58843;BME280;44614;54.356;10.100;2022-07-15T03:17:05;101557.88;;;12.15;80.06
58843;BME280;44614;54.356;10.100;2022-07-15T03:19:31;101562.56;;;12.14;80.29
58843;BME280;44614;54.356;10.100;2022-07-15T03:21:56;101550.69;;;12.14;80.30
58843;BME280;44614;54.356;10.100;2022-07-15T03:24:21;101534.00;;;11.95;80.32
58843;BME280;44614;54.356;10.100;2022-07-15T03:26:47;101561.72;;;12.14;80.25
58843;BME280;44614;54.356;10.100;2022-07-15T03:29:12;101561.47;;;12.15;80.17
58843;BME280;44614;54.356;10.100;2022-07-15T03:31:42;101569.75;;;12.15;79.86
58843;BME280;44614;54.356;10.100;2022-07-15T03:34:07;101548.59;;;12.03;80.29
58843;BME280;44614;54.356;10.100;2022-07-15T03:36:33;101555.13;;;12.15;80.51
58843;BME280;44614;54.356;10.100;2022-07-15T03:38:58;101564.00;;;12.17;80.36
58843;BME280;44614;54.356;10.100;2022-07-15T03:41:24;101565.50;;;12.19;79.79
58843;BME280;44614;54.356;10.100;2022-07-15T03:43:49;101571.41;;;12.23;79.59
58843;BME280;44614;54.356;10.100;2022-07-15T03:46:14;101569.31;;;12.25;79.10
58843;BME280;44614;54.356;10.100;2022-07-15T03:48:41;101572.25;;;12.30;78.74
58843;BME280;44614;54.356;10.100;2022-07-15T03:51:06;101576.03;;;12.36;78.23
58843;BME280;44614;54.356;10.100;2022-07-15T03:53:31;101552.38;;;12.22;78.04
58843;BME280;44614;54.356;10.100;2022-07-15T03:55:57;101568.41;;;12.38;77.85
58843;BME280;44614;54.356;10.100;2022-07-15T03:58:22;101584.47;;;12.48;77.87
58843;BME280;44614;54.356;10.100;2022-07-15T04:00:47;101583.41;;;12.49;78.10
58843;BME280;44614;54.356;10.100;2022-07-15T04:03:13;101576.84;;;12.50;77.73
58843;BME280;44614;54.356;10.100;2022-07-15T04:05:38;101588.50;;;12.52;77.68
58843;BME280;44614;54.356;10.100;2022-07-15T04:08:04;101559.06;;;12.39;77.84
58843;BME280;44614;54.356;10.100;2022-07-15T04:10:30;101579.34;;;12.58;77.53
58843;BME280;44614;54.356;10.100;2022-07-15T04:12:56;101575.09;;;12.62;77.13
58843;BME280;44614;54.356;10.100;2022-07-15T04:15:22;101583.34;;;12.62;77.55
58843;BME280;44614;54.356;10.100;2022-07-15T04:17:47;101577.41;;;12.65;77.38
58843;BME280;44614;54.356;10.100;2022-07-15T04:20:12;101583.75;;;12.72;77.31
58843;BME280;44614;54.356;10.100;2022-07-15T04:22:42;101578.63;;;12.76;76.86
58843;BME280;44614;54.356;10.100;2022-07-15T04:25:09;101584.72;;;12.84;76.50
58843;BME280;44614;54.356;10.100;2022-07-15T04:27:34;101586.63;;;12.90;77.41
58843;BME280;44614;54.356;10.100;2022-07-15T04:30:00;101581.09;;;12.90;76.85
58843;BME280;44614;54.356;10.100;2022-07-15T04:32:25;101568.59;;;12.88;76.66
58843;BME280;44614;54.356;10.100;2022-07-15T04:34:52;101581.91;;;12.98;76.51
58843;BME280;44614;54.356;10.100;2022-07-15T04:37:17;101582.09;;;13.03;76.38
58843;BME280;44614;54.356;10.100;2022-07-15T04:39:42;101586.97;;;13.01;75.76
58843;BME280;44614;54.356;10.100;2022-07-15T04:42:08;101591.44;;;13.02;75.57
58843;BME280;44614;54.356;10.100;2022-07-15T04:44:33;101582.94;;;13.03;75.80
58843;BME280;44614;54.356;10.100;2022-07-15T04:46:58;101595.84;;;13.09;75.62
58843;BME280;44614;54.356;10.100;2022-07-15T04:49:24;101592.41;;;13.14;75.71
58843;BME280;44614;54.356;10.100;2022-07-15T04:52:08;101587.91;;;13.20;75.49
58843;BME280;44614;54.356;10.100;2022-07-15T04:54:33;101586.22;;;13.25;75.22
58843;BME280;44614;54.356;10.100;2022-07-15T04:56:58;101591.69;;;13.32;75.14
58843;BME280;44614;54.356;10.100;2022-07-15T04:59:24;101599.47;;;13.41;75.13
58843;BME280;44614;54.356;10.100;2022-07-15T05:01:49;101597.75;;;13.47;74.96
58843;BME280;44614;54.356;10.100;2022-07-15T05:04:14;101598.50;;;13.54;74.87
58843;BME280;44614;54.356;10.100;2022-07-15T05:06:40;101593.19;;;13.59;74.55
58843;BME280;44614;54.356;10.100;2022-07-15T05:09:05;101593.34;;;13.64;74.38
58843;BME280;44614;54.356;10.100;2022-07-15T05:11:30;101600.50;;;13.72;73.87
58843;BME280;44614;54.356;10.100;2022-07-15T05:13:56;101597.44;;;13.80;74.23
58843;BME280;44614;54.356;10.100;2022-07-15T05:16:21;101605.28;;;13.83;73.88
58843;BME280;44614;54.356;10.100;2022-07-15T05:18:46;101598.03;;;13.89;73.60
58843;BME280;44614;54.356;10.100;2022-07-15T05:21:11;101559.31;;;13.71;73.41
58843;BME280;44614;54.356;10.100;2022-07-15T05:23:37;101608.69;;;14.04;73.41
58843;BME280;44614;54.356;10.100;2022-07-15T05:26:02;101615.22;;;14.09;73.24
58843;BME280;44614;54.356;10.100;2022-07-15T05:28:28;101618.97;;;14.15;73.43
58843;BME280;44614;54.356;10.100;2022-07-15T05:30:53;101618.91;;;14.22;72.70
58843;BME280;44614;54.356;10.100;2022-07-15T05:33:18;101630.13;;;14.27;72.69
58843;BME280;44614;54.356;10.100;2022-07-15T05:35:44;101627.09;;;14.35;72.36
58843;BME280;44614;54.356;10.100;2022-07-15T05:38:10;101619.63;;;14.35;72.03
58843;BME280;44614;54.356;10.100;2022-07-15T05:40:36;101623.31;;;14.48;72.44
58843;BME280;44614;54.356;10.100;2022-07-15T05:43:01;101618.63;;;14.48;71.94
58843;BME280;44614;54.356;10.100;2022-07-15T05:45:27;101634.03;;;14.62;71.92
58843;BME280;44614;54.356;10.100;2022-07-15T05:47:52;101635.41;;;14.72;71.59
58843;BME280;44614;54.356;10.100;2022-07-15T05:50:18;101631.47;;;14.79;71.94
58843;BME280;44614;54.356;10.100;2022-07-15T05:52:44;101627.47;;;14.75;70.83
58843;BME280;44614;54.356;10.100;2022-07-15T05:55:10;101633.63;;;14.77;71.19
58843;BME280;44614;54.356;10.100;2022-07-15T05:57:35;101627.03;;;14.78;71.15
58843;BME280;44614;54.356;10.100;2022-07-15T06:00:01;101639.03;;;15.02;70.71
58843;BME280;44614;54.356;10.100;2022-07-15T06:02:26;101637.72;;;15.23;69.78
58843;BME280;44614;54.356;10.100;2022-07-15T06:04:51;101638.25;;;15.44;69.19
58843;BME280;44614;54.356;10.100;2022-07-15T06:07:17;101629.44;;;15.65;68.46
58843;BME280;44614;54.356;10.100;2022-07-15T06:09:42;101634.88;;;15.83;67.95
58843;BME280;44614;54.356;10.100;2022-07-15T06:12:07;101638.97;;;15.81;67.25
58843;BME280;44614;54.356;10.100;2022-07-15T06:14:34;101638.97;;;15.81;67.23
58843;BME280;44614;54.356;10.100;2022-07-15T06:17:00;101645.47;;;15.87;67.65
58843;BME280;44614;54.356;10.100;2022-07-15T06:19:26;101644.16;;;16.01;67.46
58843;BME280;44614;54.356;10.100;2022-07-15T06:21:51;101653.31;;;16.01;66.83
58843;BME280;44614;54.356;10.100;2022-07-15T06:24:16;101646.81;;;16.19;66.26
58843;BME280;44614;54.356;10.100;2022-07-15T06:26:41;101647.31;;;16.16;65.46
58843;BME280;44614;54.356;10.100;2022-07-15T06:29:07;101653.09;;;16.15;63.89
58843;BME280;44614;54.356;10.100;2022-07-15T06:31:33;101652.59;;;16.06;63.55
58843;BME280;44614;54.356;10.100;2022-07-15T06:33:58;101642.47;;;16.00;65.69
58843;BME280;44614;54.356;10.100;2022-07-15T06:36:24;101650.44;;;16.08;65.72
58843;BME280;44614;54.356;10.100;2022-07-15T06:38:50;101649.69;;;16.48;64.70
58843;BME280;44614;54.356;10.100;2022-07-15T06:41:16;101647.50;;;16.73;63.33
58843;BME280;44614;54.356;10.100;2022-07-15T06:43:43;101650.81;;;16.99;62.60
58843;BME280;44614;54.356;10.100;2022-07-15T06:46:08;101645.13;;;17.05;56.21
58843;BME280;44614;54.356;10.100;2022-07-15T06:48:33;101645.63;;;17.02;61.90
58843;BME280;44614;54.356;10.100;2022-07-15T06:50:59;101667.13;;;16.95;62.72
58843;BME280;44614;54.356;10.100;2022-07-15T06:53:24;101675.97;;;16.80;61.89
58843;BME280;44614;54.356;10.100;2022-07-15T06:55:50;101663.66;;;16.76;62.14
58843;BME280;44614;54.356;10.100;2022-07-15T06:58:15;101680.53;;;16.63;63.05
58843;BME280;44614;54.356;10.100;2022-07-15T07:00:42;101676.81;;;16.46;62.30
58843;BME280;44614;54.356;10.100;2022-07-15T07:03:07;101670.91;;;16.42;63.59
58843;BME280;44614;54.356;10.100;2022-07-15T07:05:33;101676.22;;;16.44;63.07
58843;BME280;44614;54.356;10.100;2022-07-15T07:07:58;101682.38;;;16.46;62.20
58843;BME280;44614;54.356;10.100;2022-07-15T07:10:23;101686.72;;;16.42;62.62
58843;BME280;44614;54.356;10.100;2022-07-15T07:12:51;101675.25;;;16.50;62.19
58843;BME280;44614;54.356;10.100;2022-07-15T07:15:17;101671.88;;;16.48;62.19
58843;BME280;44614;54.356;10.100;2022-07-15T07:17:43;101675.34;;;16.55;61.85
58843;BME280;44614;54.356;10.100;2022-07-15T07:20:08;101681.50;;;16.80;61.93
58843;BME280;44614;54.356;10.100;2022-07-15T07:22:34;101675.91;;;17.04;60.70
58843;BME280;44614;54.356;10.100;2022-07-15T07:25:00;101668.63;;;17.15;56.19
58843;BME280;44614;54.356;10.100;2022-07-15T07:27:26;101677.03;;;17.20;60.54
58843;BME280;44614;54.356;10.100;2022-07-15T07:29:51;101667.66;;;17.21;60.61
58843;BME280;44614;54.356;10.100;2022-07-15T07:32:17;101677.81;;;17.44;59.94
58843;BME280;44614;54.356;10.100;2022-07-15T07:34:42;101663.59;;;17.57;60.10
58843;BME280;44614;54.356;10.100;2022-07-15T07:37:07;101658.75;;;17.64;59.80
58843;BME280;44614;54.356;10.100;2022-07-15T07:39:33;101667.25;;;17.74;59.23
58843;BME280;44614;54.356;10.100;2022-07-15T07:41:58;101662.81;;;18.07;59.81
58843;BME280;44614;54.356;10.100;2022-07-15T07:44:23;101663.56;;;18.36;58.41
58843;BME280;44614;54.356;10.100;2022-07-15T07:46:49;101662.13;;;18.34;57.23
58843;BME280;44614;54.356;10.100;2022-07-15T07:49:14;101671.94;;;18.58;56.80
58843;BME280;44614;54.356;10.100;2022-07-15T07:51:40;101675.03;;;18.62;56.74
58843;BME280;44614;54.356;10.100;2022-07-15T07:54:09;101657.84;;;18.65;56.52
58843;BME280;44614;54.356;10.100;2022-07-15T07:56:34;101658.59;;;18.99;55.81
58843;BME280;44614;54.356;10.100;2022-07-15T07:59:00;101665.09;;;19.32;55.56
58843;BME280;44614;54.356;10.100;2022-07-15T08:01:25;101662.41;;;19.15;55.14
58843;BME280;44614;54.356;10.100;2022-07-15T08:03:51;101662.09;;;18.89;56.66
58843;BME280;44614;54.356;10.100;2022-07-15T08:06:17;101657.94;;;18.70;57.10
58843;BME280;44614;54.356;10.100;2022-07-15T08:08:44;101664.84;;;18.67;56.42
58843;BME280;44614;54.356;10.100;2022-07-15T08:11:09;101658.34;;;18.79;56.39
58843;BME280;44614;54.356;10.100;2022-07-15T08:13:35;101656.91;;;18.98;54.17
58843;BME280;44614;54.356;10.100;2022-07-15T08:16:00;101657.69;;;18.93;53.18
58843;BME280;44614;54.356;10.100;2022-07-15T08:18:26;101659.50;;;18.83;55.63
58843;BME280;44614;54.356;10.100;2022-07-15T08:20:51;101659.50;;;18.83;55.01
58843;BME280;44614;54.356;10.100;2022-07-15T08:23:17;101662.91;;;18.68;54.74
58843;BME280;44614;54.356;10.100;2022-07-15T08:25:47;101667.56;;;18.62;56.23
58843;BME280;44614;54.356;10.100;2022-07-15T08:28:13;101653.00;;;18.55;56.27
58843;BME280;44614;54.356;10.100;2022-07-15T08:30:38;101658.34;;;18.62;53.50
58843;BME280;44614;54.356;10.100;2022-07-15T08:33:03;101661.69;;;18.42;55.56
58843;BME280;44614;54.356;10.100;2022-07-15T08:35:30;101660.44;;;18.33;55.90
58843;BME280;44614;54.356;10.100;2022-07-15T08:37:55;101669.69;;;18.55;55.01
58843;BME280;44614;54.356;10.100;2022-07-15T08:40:21;101672.50;;;18.77;55.19
58843;BME280;44614;54.356;10.100;2022-07-15T08:42:47;101658.25;;;18.95;53.58
58843;BME280;44614;54.356;10.100;2022-07-15T08:45:14;101665.78;;;19.17;53.66
58843;BME280;44614;54.356;10.100;2022-07-15T08:47:41;101658.25;;;19.66;53.55
58843;BME280;44614;54.356;10.100;2022-07-15T08:50:12;101653.78;;;20.35;52.82
58843;BME280;44614;54.356;10.100;2022-07-15T08:52:39;101657.69;;;20.81;51.92
58843;BME280;44614;54.356;10.100;2022-07-15T08:55:06;101642.41;;;20.47;52.50
58843;BME280;44614;54.356;10.100;2022-07-15T08:57:32;101654.81;;;20.24;52.82
58843;BME280;44614;54.356;10.100;2022-07-15T08:59:58;101662.47;;;20.06;52.95
58843;BME280;44614;54.356;10.100;2022-07-15T09:02:23;101666.66;;;19.71;53.49
58843;BME280;44614;54.356;10.100;2022-07-15T09:07:54;101654.53;;;19.34;53.74
58843;BME280;44614;54.356;10.100;2022-07-15T09:10:22;101648.13;;;19.33;53.78
58843;BME280;44614;54.356;10.100;2022-07-15T09:12:49;101665.13;;;19.59;53.18
58843;BME280;44614;54.356;10.100;2022-07-15T09:15:36;101656.31;;;19.67;49.62
58843;BME280;44614;54.356;10.100;2022-07-15T09:18:14;101650.88;;;20.19;50.46
58843;BME280;44614;54.356;10.100;2022-07-15T09:20:41;101662.84;;;20.15;51.75
58843;BME280;44614;54.356;10.100;2022-07-15T09:23:08;101665.56;;;20.05;52.67
58843;BME280;44614;54.356;10.100;2022-07-15T09:25:36;101659.19;;;19.77;52.26
58843;BME280;44614;54.356;10.100;2022-07-15T09:28:04;101667.91;;;19.59;51.54
58843;BME280;44614;54.356;10.100;2022-07-15T09:30:36;101664.84;;;19.33;53.28
58843;BME280;44614;54.356;10.100;2022-07-15T09:33:23;101672.69;;;19.14;52.57
58843;BME280;44614;54.356;10.100;2022-07-15T09:36:19;101665.50;;;19.18;52.91
58843;BME280;44614;54.356;10.100;2022-07-15T09:43:51;101673.50;;;19.37;52.06
58843;BME280;44614;54.356;10.100;2022-07-15T09:46:19;101674.75;;;19.46;51.92
58843;BME280;44614;54.356;10.100;2022-07-15T09:48:47;101672.03;;;19.56;51.40
58843;BME280;44614;54.356;10.100;2022-07-15T09:51:13;101653.06;;;19.53;51.23
58843;BME280;44614;54.356;10.100;2022-07-15T09:53:39;101674.00;;;19.83;51.17
58843;BME280;44614;54.356;10.100;2022-07-15T09:56:10;101670.16;;;19.89;50.44
58843;BME280;44614;54.356;10.100;2022-07-15T09:58:38;101679.91;;;19.91;50.77
58843;BME280;44614;54.356;10.100;2022-07-15T10:01:05;101683.25;;;19.88;51.05
58843;BME280;44614;54.356;10.100;2022-07-15T10:03:32;101685.63;;;19.75;48.98
58843;BME280;44614;54.356;10.100;2022-07-15T10:05:57;101693.53;;;19.34;47.57
58843;BME280;44614;54.356;10.100;2022-07-15T10:08:24;101687.88;;;19.02;52.88
58843;BME280;44614;54.356;10.100;2022-07-15T10:10:52;101693.03;;;18.93;53.12
58843;BME280;44614;54.356;10.100;2022-07-15T10:19:30;101691.56;;;18.85;51.38
58843;BME280;44614;54.356;10.100;2022-07-15T10:22:30;101696.06;;;19.13;51.28
58843;BME280;44614;54.356;10.100;2022-07-15T10:25:29;101694.09;;;19.58;51.11
58843;BME280;44614;54.356;10.100;2022-07-15T10:28:19;101690.63;;;19.72;50.00
58843;BME280;44614;54.356;10.100;2022-07-15T10:31:23;101688.84;;;19.88;50.84
58843;BME280;44614;54.356;10.100;2022-07-15T10:36:40;101689.25;;;19.75;49.47
58843;BME280;44614;54.356;10.100;2022-07-15T10:39:07;101692.00;;;19.70;51.06
58843;BME280;44614;54.356;10.100;2022-07-15T10:41:58;101708.75;;;19.75;50.08
58843;BME280;44614;54.356;10.100;2022-07-15T10:44:26;101694.91;;;19.58;51.79
58843;BME280;44614;54.356;10.100;2022-07-15T10:49:43;101702.16;;;19.81;52.03
58843;BME280;44614;54.356;10.100;2022-07-15T10:54:44;101682.03;;;20.49;50.89
58843;BME280;44614;54.356;10.100;2022-07-15T10:57:11;101669.09;;;20.75;50.91
58843;BME280;44614;54.356;10.100;2022-07-15T10:59:47;101686.03;;;21.15;49.10
58843;BME280;44614;54.356;10.100;2022-07-15T11:02:15;101689.53;;;21.53;49.29
58843;BME280;44614;54.356;10.100;2022-07-15T11:04:42;101654.53;;;21.30;49.48
58843;BME280;44614;54.356;10.100;2022-07-15T11:12:54;101681.00;;;21.17;50.45
58843;BME280;44614;54.356;10.100;2022-07-15T11:15:20;101683.84;;;20.65;49.62
58843;BME280;44614;54.356;10.100;2022-07-15T11:17:51;101699.09;;;20.15;52.46
58843;BME280;44614;54.356;10.100;2022-07-15T11:20:28;101696.06;;;19.84;49.72
58843;BME280;44614;54.356;10.100;2022-07-15T11:22:56;101686.50;;;19.53;51.59
58843;BME280;44614;54.356;10.100;2022-07-15T11:28:11;101687.84;;;19.23;51.63
58843;BME280;44614;54.356;10.100;2022-07-15T11:30:48;101677.59;;;19.29;52.05
58843;BME280;44614;54.356;10.100;2022-07-15T11:33:19;101689.19;;;19.43;52.12
58843;BME280;44614;54.356;10.100;2022-07-15T11:35:49;101686.94;;;19.67;51.46
58843;BME280;44614;54.356;10.100;2022-07-15T11:38:16;101677.31;;;19.80;50.90
58843;BME280;44614;54.356;10.100;2022-07-15T11:40:48;101677.75;;;20.36;49.79
58843;BME280;44614;54.356;10.100;2022-07-15T11:43:33;101670.78;;;20.76;49.35
58843;BME280;44614;54.356;10.100;2022-07-15T11:46:17;101673.78;;;21.27;48.78
58843;BME280;44614;54.356;10.100;2022-07-15T11:48:43;101669.69;;;21.45;46.84
58843;BME280;44614;54.356;10.100;2022-07-15T11:51:10;101664.81;;;21.14;47.92
58843;BME280;44614;54.356;10.100;2022-07-15T11:53:38;101674.22;;;20.93;49.16
58843;BME280;44614;54.356;10.100;2022-07-15T11:56:05;101686.97;;;20.79;49.55
58843;BME280;44614;54.356;10.100;2022-07-15T11:58:41;101678.19;;;20.50;50.32
58843;BME280;44614;54.356;10.100;2022-07-15T12:01:09;101684.72;;;20.33;49.89
58843;BME280;44614;54.356;10.100;2022-07-15T12:06:08;101685.97;;;19.56;49.59
58843;BME280;44614;54.356;10.100;2022-07-15T12:11:18;101641.50;;;19.12;51.79
58843;BME280;44614;54.356;10.100;2022-07-15T12:13:50;101692.22;;;19.63;51.28
58843;BME280;44614;54.356;10.100;2022-07-15T12:16:18;101696.88;;;19.85;51.00
58843;BME280;44614;54.356;10.100;2022-07-15T12:18:45;101660.34;;;19.81;50.04
58843;BME280;44614;54.356;10.100;2022-07-15T12:21:11;101669.16;;;20.00;49.99
58843;BME280;44614;54.356;10.100;2022-07-15T12:23:37;101692.22;;;20.28;49.34
58843;BME280;44614;54.356;10.100;2022-07-15T12:26:11;101690.28;;;20.33;47.65
58843;BME280;44614;54.356;10.100;2022-07-15T12:28:37;101690.84;;;20.30;49.45
58843;BME280;44614;54.356;10.100;2022-07-15T12:31:03;101700.81;;;20.21;48.96
58843;BME280;44614;54.356;10.100;2022-07-15T12:33:34;101692.59;;;20.04;49.59
58843;BME280;44614;54.356;10.100;2022-07-15T12:36:15;101692.00;;;20.34;48.94
58843;BME280;44614;54.356;10.100;2022-07-15T12:38:41;101695.28;;;20.63;49.01
58843;BME280;44614;54.356;10.100;2022-07-15T12:41:10;101694.72;;;20.66;49.00
58843;BME280;44614;54.356;10.100;2022-07-15T12:43:48;101696.19;;;20.79;48.96
58843;BME280;44614;54.356;10.100;2022-07-15T12:46:15;101695.09;;;21.43;47.68
58843;BME280;44614;54.356;10.100;2022-07-15T12:48:44;101698.50;;;21.71;45.72
58843;BME280;44614;54.356;10.100;2022-07-15T12:51:11;101683.13;;;22.09;46.43
58843;BME280;44614;54.356;10.100;2022-07-15T12:53:37;101686.81;;;22.20;46.37
58843;BME280;44614;54.356;10.100;2022-07-15T12:56:03;101689.00;;;22.12;47.03
58843;BME280;44614;54.356;10.100;2022-07-15T12:58:31;101693.53;;;22.19;47.45
58843;BME280;44614;54.356;10.100;2022-07-15T13:01:11;101687.03;;;22.64;46.62
58843;BME280;44614;54.356;10.100;2022-07-15T13:03:37;101677.69;;;22.89;45.84
58843;BME280;44614;54.356;10.100;2022-07-15T13:06:03;101681.66;;;22.83;46.13
58843;BME280;44614;54.356;10.100;2022-07-15T13:08:30;101676.50;;;23.21;45.40
58843;BME280;44614;54.356;10.100;2022-07-15T13:10:59;101680.66;;;23.23;45.76
58843;BME280;44614;54.356;10.100;2022-07-15T13:13:26;101683.78;;;23.11;45.96
58843;BME280;44614;54.356;10.100;2022-07-15T13:15:52;101685.38;;;22.53;47.08
58843;BME280;44614;54.356;10.100;2022-07-15T13:18:18;101685.94;;;22.04;47.68